sensor_id;sensor_type;location;lat;lon;timestamp;P1;durP1;ratioP1;P2;durP2;ratioP2
51732;SDS011;39139;53.144;6.244;2023-04-06T00:01:31;9.65;;;6.20;;
51732;SDS011;39139;53.144;6.244;2023-04-06T00:03:56;10.32;;;6.50;;
51732;SDS011;39139;53.144;6.244;2023-04-06T00:06:22;9.50;;;6.72;;
51732;SDS011;39139;53.144;6.244;2023-04-06T00:08:48;7.90;;;6.35;;
51732;SDS011;39139;53.144;6.244;2023-04-06T00:11:14;8.65;;;6.22;;
51732;SDS011;39139;53.144;6.244;2023-04-06T00:13:41;9.10;;;6.18;;
51732;SDS011;39139;53.144;6.244;2023-04-06T00:16:07;11.07;;;5.65;;
51732;SDS011;39139;53.144;6.244;2023-04-06T00:18:32;9.35;;;6.85;;
51732;SDS011;39139;53.144;6.244;2023-04-06T00:20:58;8.55;;;6.10;;
51732;SDS011;39139;53.144;6.244;2023-04-06T00:23:24;13.77;;;5.97;;
51732;SDS011;39139;53.144;6.244;2023-04-06T00:25:49;7.65;;;5.97;;
51732;SDS011;39139;53.144;6.244;2023-04-06T00:28:15;8.63;;;6.20;;
51732;SDS011;39139;53.144;6.244;2023-04-06T00:30:41;9.30;;;6.35;;
51732;SDS011;39139;53.144;6.244;2023-04-06T00:33:06;8.55;;;5.97;;
51732;SDS011;39139;53.144;6.244;2023-04-06T00:35:32;9.77;;;6.43;;
51732;SDS011;39139;53.144;6.244;2023-04-06T00:37:58;10.25;;;5.97;;
51732;SDS011;39139;53.144;6.244;2023-04-06T00:40:23;7.47;;;6.03;;
51732;SDS011;39139;53.144;6.244;2023-04-06T00:42:49;7.45;;;5.38;;
51732;SDS011;39139;53.144;6.244;2023-04-06T00:45:15;9.90;;;5.97;;
51732;SDS011;39139;53.144;6.244;2023-04-06T00:47:41;9.70;;;5.88;;
51732;SDS011;39139;53.144;6.244;2023-04-06T00:50:07;7.35;;;5.53;;
51732;SDS011;39139;53.144;6.244;2023-04-06T00:52:33;7.07;;;5.43;;
51732;SDS011;39139;53.144;6.244;2023-04-06T00:55:00;7.95;;;5.60;;
51732;SDS011;39139;53.144;6.244;2023-04-06T00:57:26;9.05;;;5.30;;
51732;SDS011;39139;53.144;6.244;2023-04-06T00:59:52;7.53;;;4.82;;
51732;SDS011;39139;53.144;6.244;2023-04-06T01:02:18;7.40;;;5.90;;
51732;SDS011;39139;53.144;6.244;2023-04-06T01:04:44;7.63;;;4.63;;
51732;SDS011;39139;53.144;6.244;2023-04-06T01:07:10;9.80;;;6.05;;
51732;SDS011;39139;53.144;6.244;2023-04-06T01:09:35;7.47;;;5.57;;
51732;SDS011;39139;53.144;6.244;2023-04-06T01:12:01;6.20;;;5.38;;
51732;SDS011;39139;53.144;6.244;2023-04-06T01:14:28;8.32;;;5.78;;
51732;SDS011;39139;53.144;6.244;2023-04-06T01:16:54;8.40;;;6.20;;
51732;SDS011;39139;53.144;6.244;2023-04-06T01:19:22;7.10;;;5.68;;
51732;SDS011;39139;53.144;6.244;2023-04-06T01:21:48;9.55;;;6.00;;
51732;SDS011;39139;53.144;6.244;2023-04-06T01:24:15;9.20;;;6.30;;
51732;SDS011;39139;53.144;6.244;2023-04-06T01:26:41;7.03;;;5.40;;
51732;SDS011;39139;53.144;6.244;2023-04-06T01:29:09;7.03;;;5.97;;
51732;SDS011;39139;53.144;6.244;2023-04-06T01:31:34;5.80;;;5.25;;
51732;SDS011;39139;53.144;6.244;2023-04-06T01:34:00;8.05;;;5.97;;
51732;SDS011;39139;53.144;6.244;2023-04-06T01:36:25;6.97;;;5.03;;
51732;SDS011;39139;53.144;6.244;2023-04-06T01:38:51;8.15;;;5.47;;
51732;SDS011;39139;53.144;6.244;2023-04-06T01:41:17;9.13;;;6.05;;
51732;SDS011;39139;53.144;6.244;2023-04-06T01:43:43;6.10;;;5.50;;
51732;SDS011;39139;53.144;6.244;2023-04-06T01:46:09;8.18;;;6.35;;
51732;SDS011;39139;53.144;6.244;2023-04-06T01:48:35;6.13;;;5.53;;
51732;SDS011;39139;53.144;6.244;2023-04-06T01:51:01;10.07;;;6.03;;
51732;SDS011;39139;53.144;6.244;2023-04-06T01:53:27;8.55;;;6.15;;
51732;SDS011;39139;53.144;6.244;2023-04-06T01:55:52;7.10;;;6.25;;
51732;SDS011;39139;53.144;6.244;2023-04-06T01:58:18;8.27;;;5.72;;
51732;SDS011;39139;53.144;6.244;2023-04-06T02:00:43;8.30;;;6.18;;
51732;SDS011;39139;53.144;6.244;2023-04-06T02:03:09;8.30;;;5.53;;
51732;SDS011;39139;53.144;6.244;2023-04-06T02:05:35;6.78;;;5.68;;
51732;SDS011;39139;53.144;6.244;2023-04-06T02:08:04;11.82;;;5.82;;
51732;SDS011;39139;53.144;6.244;2023-04-06T02:10:30;8.38;;;5.35;;
51732;SDS011;39139;53.144;6.244;2023-04-06T02:12:56;6.78;;;5.88;;
51732;SDS011;39139;53.144;6.244;2023-04-06T02:15:22;7.60;;;5.95;;
51732;SDS011;39139;53.144;6.244;2023-04-06T02:17:47;6.30;;;5.53;;
51732;SDS011;39139;53.144;6.244;2023-04-06T02:20:13;7.82;;;5.75;;
51732;SDS011;39139;53.144;6.244;2023-04-06T02:22:39;9.57;;;5.78;;
51732;SDS011;39139;53.144;6.244;2023-04-06T02:25:05;7.30;;;5.60;;
51732;SDS011;39139;53.144;6.244;2023-04-06T02:27:31;7.32;;;5.50;;
51732;SDS011;39139;53.144;6.244;2023-04-06T02:29:56;7.57;;;5.65;;
51732;SDS011;39139;53.144;6.244;2023-04-06T02:32:22;6.80;;;5.53;;
51732;SDS011;39139;53.144;6.244;2023-04-06T02:34:48;7.93;;;6.07;;
51732;SDS011;39139;53.144;6.244;2023-04-06T02:37:14;8.18;;;5.47;;
51732;SDS011;39139;53.144;6.244;2023-04-06T02:39:39;7.22;;;6.50;;
51732;SDS011;39139;53.144;6.244;2023-04-06T02:42:05;6.60;;;5.88;;
51732;SDS011;39139;53.144;6.244;2023-04-06T02:44:31;7.80;;;6.10;;
51732;SDS011;39139;53.144;6.244;2023-04-06T02:46:57;7.32;;;5.75;;
51732;SDS011;39139;53.144;6.244;2023-04-06T02:49:22;7.68;;;6.28;;
51732;SDS011;39139;53.144;6.244;2023-04-06T02:51:48;7.45;;;5.85;;
51732;SDS011;39139;53.144;6.244;2023-04-06T02:54:13;8.57;;;5.88;;
51732;SDS011;39139;53.144;6.244;2023-04-06T02:56:39;9.18;;;6.38;;
51732;SDS011;39139;53.144;6.244;2023-04-06T02:59:05;6.75;;;5.78;;
51732;SDS011;39139;53.144;6.244;2023-04-06T03:01:30;6.78;;;5.80;;
51732;SDS011;39139;53.144;6.244;2023-04-06T03:03:56;8.88;;;5.85;;
51732;SDS011;39139;53.144;6.244;2023-04-06T03:06:22;9.25;;;6.50;;
51732;SDS011;39139;53.144;6.244;2023-04-06T03:08:47;7.50;;;5.88;;
51732;SDS011;39139;53.144;6.244;2023-04-06T03:11:13;10.25;;;6.03;;
51732;SDS011;39139;53.144;6.244;2023-04-06T03:13:39;9.82;;;6.50;;
51732;SDS011;39139;53.144;6.244;2023-04-06T03:16:05;8.52;;;5.82;;
51732;SDS011;39139;53.144;6.244;2023-04-06T03:18:31;9.30;;;6.53;;
51732;SDS011;39139;53.144;6.244;2023-04-06T03:20:57;9.88;;;7.03;;
51732;SDS011;39139;53.144;6.244;2023-04-06T03:23:24;11.20;;;6.63;;
51732;SDS011;39139;53.144;6.244;2023-04-06T03:25:50;8.10;;;5.97;;
51732;SDS011;39139;53.144;6.244;2023-04-06T03:28:16;7.40;;;6.50;;
51732;SDS011;39139;53.144;6.244;2023-04-06T03:30:41;9.00;;;6.18;;
51732;SDS011;39139;53.144;6.244;2023-04-06T03:33:07;8.93;;;6.53;;
51732;SDS011;39139;53.144;6.244;2023-04-06T03:35:32;8.38;;;6.32;;
51732;SDS011;39139;53.144;6.244;2023-04-06T03:37:58;11.77;;;6.30;;
51732;SDS011;39139;53.144;6.244;2023-04-06T03:40:24;7.80;;;5.72;;
51732;SDS011;39139;53.144;6.244;2023-04-06T03:42:49;7.55;;;6.07;;
51732;SDS011;39139;53.144;6.244;2023-04-06T03:45:15;9.57;;;6.75;;
51732;SDS011;39139;53.144;6.244;2023-04-06T03:47:41;8.30;;;6.50;;
51732;SDS011;39139;53.144;6.244;2023-04-06T03:50:08;10.02;;;6.53;;
51732;SDS011;39139;53.144;6.244;2023-04-06T03:52:34;10.35;;;6.15;;
51732;SDS011;39139;53.144;6.244;2023-04-06T03:55:01;10.88;;;6.85;;
51732;SDS011;39139;53.144;6.244;2023-04-06T03:57:26;7.05;;;6.00;;
51732;SDS011;39139;53.144;6.244;2023-04-06T03:59:52;10.50;;;6.32;;
51732;SDS011;39139;53.144;6.244;2023-04-06T04:02:17;10.10;;;6.72;;
51732;SDS011;39139;53.144;6.244;2023-04-06T04:04:43;10.90;;;7.28;;
51732;SDS011;39139;53.144;6.244;2023-04-06T04:07:08;12.70;;;6.80;;
51732;SDS011;39139;53.144;6.244;2023-04-06T04:09:34;8.02;;;6.57;;
51732;SDS011;39139;53.144;6.244;2023-04-06T04:12:00;9.13;;;6.72;;
51732;SDS011;39139;53.144;6.244;2023-04-06T04:14:25;7.50;;;6.63;;
51732;SDS011;39139;53.144;6.244;2023-04-06T04:16:51;8.65;;;6.85;;
51732;SDS011;39139;53.144;6.244;2023-04-06T04:19:17;9.80;;;7.03;;
51732;SDS011;39139;53.144;6.244;2023-04-06T04:21:44;7.05;;;6.35;;
51732;SDS011;39139;53.144;6.244;2023-04-06T04:24:11;8.63;;;6.45;;
51732;SDS011;39139;53.144;6.244;2023-04-06T04:26:37;8.35;;;7.07;;
51732;SDS011;39139;53.144;6.244;2023-04-06T04:29:03;11.60;;;6.80;;
51732;SDS011;39139;53.144;6.244;2023-04-06T04:31:29;8.93;;;6.68;;
51732;SDS011;39139;53.144;6.244;2023-04-06T04:33:55;10.80;;;6.85;;
51732;SDS011;39139;53.144;6.244;2023-04-06T04:36:21;7.07;;;6.45;;
51732;SDS011;39139;53.144;6.244;2023-04-06T04:38:46;9.23;;;7.05;;
51732;SDS011;39139;53.144;6.244;2023-04-06T04:41:12;10.30;;;7.30;;
51732;SDS011;39139;53.144;6.244;2023-04-06T04:43:38;8.77;;;6.78;;
51732;SDS011;39139;53.144;6.244;2023-04-06T04:46:03;9.15;;;7.03;;
51732;SDS011;39139;53.144;6.244;2023-04-06T04:48:29;9.88;;;7.35;;
51732;SDS011;39139;53.144;6.244;2023-04-06T04:50:55;8.02;;;6.97;;
51732;SDS011;39139;53.144;6.244;2023-04-06T04:53:21;10.23;;;7.32;;
51732;SDS011;39139;53.144;6.244;2023-04-06T04:55:46;8.88;;;7.03;;
51732;SDS011;39139;53.144;6.244;2023-04-06T04:58:12;8.68;;;7.35;;
51732;SDS011;39139;53.144;6.244;2023-04-06T05:00:41;11.73;;;8.00;;
51732;SDS011;39139;53.144;6.244;2023-04-06T05:03:07;9.88;;;7.70;;
51732;SDS011;39139;53.144;6.244;2023-04-06T05:05:39;11.00;;;7.97;;
51732;SDS011;39139;53.144;6.244;2023-04-06T05:08:04;13.52;;;8.10;;
51732;SDS011;39139;53.144;6.244;2023-04-06T05:10:30;11.52;;;7.57;;
51732;SDS011;39139;53.144;6.244;2023-04-06T05:12:55;12.52;;;8.23;;
51732;SDS011;39139;53.144;6.244;2023-04-06T05:15:21;10.48;;;7.68;;
51732;SDS011;39139;53.144;6.244;2023-04-06T05:17:46;9.80;;;7.28;;
51732;SDS011;39139;53.144;6.244;2023-04-06T05:20:12;9.60;;;7.40;;
51732;SDS011;39139;53.144;6.244;2023-04-06T05:22:38;10.40;;;8.43;;
51732;SDS011;39139;53.144;6.244;2023-04-06T05:25:03;10.93;;;8.30;;
51732;SDS011;39139;53.144;6.244;2023-04-06T05:27:29;11.60;;;7.93;;
51732;SDS011;39139;53.144;6.244;2023-04-06T05:29:55;12.25;;;8.10;;
51732;SDS011;39139;53.144;6.244;2023-04-06T05:32:21;12.40;;;8.57;;
51732;SDS011;39139;53.144;6.244;2023-04-06T05:34:48;13.27;;;8.70;;
51732;SDS011;39139;53.144;6.244;2023-04-06T05:37:15;10.35;;;8.25;;
51732;SDS011;39139;53.144;6.244;2023-04-06T05:39:41;8.48;;;7.63;;
51732;SDS011;39139;53.144;6.244;2023-04-06T05:42:06;7.80;;;6.85;;
51732;SDS011;39139;53.144;6.244;2023-04-06T05:44:32;11.38;;;7.47;;
51732;SDS011;39139;53.144;6.244;2023-04-06T05:46:58;8.10;;;7.30;;
51732;SDS011;39139;53.144;6.244;2023-04-06T05:49:23;11.23;;;7.85;;
51732;SDS011;39139;53.144;6.244;2023-04-06T05:51:49;9.82;;;6.22;;
51732;SDS011;39139;53.144;6.244;2023-04-06T05:54:14;10.25;;;7.15;;
51732;SDS011;39139;53.144;6.244;2023-04-06T05:56:40;9.25;;;6.82;;
51732;SDS011;39139;53.144;6.244;2023-04-06T05:59:06;10.48;;;7.80;;
51732;SDS011;39139;53.144;6.244;2023-04-06T06:01:32;7.25;;;6.55;;
51732;SDS011;39139;53.144;6.244;2023-04-06T06:04:02;8.05;;;6.47;;
51732;SDS011;39139;53.144;6.244;2023-04-06T06:06:28;14.27;;;6.88;;
51732;SDS011;39139;53.144;6.244;2023-04-06T06:08:57;8.57;;;7.22;;
51732;SDS011;39139;53.144;6.244;2023-04-06T06:11:27;10.68;;;7.60;;
51732;SDS011;39139;53.144;6.244;2023-04-06T06:13:53;8.23;;;6.28;;
51732;SDS011;39139;53.144;6.244;2023-04-06T06:16:18;8.98;;;7.15;;
51732;SDS011;39139;53.144;6.244;2023-04-06T06:18:44;8.60;;;6.07;;
51732;SDS011;39139;53.144;6.244;2023-04-06T06:21:10;11.63;;;7.65;;
51732;SDS011;39139;53.144;6.244;2023-04-06T06:23:38;8.45;;;5.88;;
51732;SDS011;39139;53.144;6.244;2023-04-06T06:26:04;8.02;;;6.43;;
51732;SDS011;39139;53.144;6.244;2023-04-06T06:28:30;15.38;;;7.53;;
51732;SDS011;39139;53.144;6.244;2023-04-06T06:30:56;8.88;;;7.43;;
51732;SDS011;39139;53.144;6.244;2023-04-06T06:33:22;10.00;;;7.18;;
51732;SDS011;39139;53.144;6.244;2023-04-06T06:35:47;8.50;;;7.03;;
51732;SDS011;39139;53.144;6.244;2023-04-06T06:38:14;9.60;;;7.57;;
51732;SDS011;39139;53.144;6.244;2023-04-06T06:40:40;11.45;;;7.45;;
51732;SDS011;39139;53.144;6.244;2023-04-06T06:43:06;9.25;;;6.80;;
51732;SDS011;39139;53.144;6.244;2023-04-06T06:45:31;7.07;;;6.35;;
51732;SDS011;39139;53.144;6.244;2023-04-06T06:47:57;8.25;;;6.07;;
51732;SDS011;39139;53.144;6.244;2023-04-06T06:50:23;7.47;;;6.65;;
51732;SDS011;39139;53.144;6.244;2023-04-06T06:52:49;11.70;;;7.45;;
51732;SDS011;39139;53.144;6.244;2023-04-06T06:55:15;7.35;;;6.63;;
51732;SDS011;39139;53.144;6.244;2023-04-06T06:57:40;10.50;;;7.20;;
51732;SDS011;39139;53.144;6.244;2023-04-06T07:00:07;7.68;;;6.88;;
51732;SDS011;39139;53.144;6.244;2023-04-06T07:02:34;9.95;;;7.47;;
51732;SDS011;39139;53.144;6.244;2023-04-06T07:05:03;8.82;;;7.03;;
51732;SDS011;39139;53.144;6.244;2023-04-06T07:07:29;12.27;;;7.20;;
51732;SDS011;39139;53.144;6.244;2023-04-06T07:09:57;12.40;;;7.82;;
51732;SDS011;39139;53.144;6.244;2023-04-06T07:12:22;10.15;;;6.95;;
51732;SDS011;39139;53.144;6.244;2023-04-06T07:14:51;10.10;;;7.55;;
51732;SDS011;39139;53.144;6.244;2023-04-06T07:17:17;9.88;;;8.27;;
51732;SDS011;39139;53.144;6.244;2023-04-06T07:19:42;11.90;;;7.80;;
51732;SDS011;39139;53.144;6.244;2023-04-06T07:22:08;14.18;;;8.80;;
51732;SDS011;39139;53.144;6.244;2023-04-06T07:24:34;12.05;;;8.52;;
51732;SDS011;39139;53.144;6.244;2023-04-06T07:26:59;9.57;;;7.68;;
51732;SDS011;39139;53.144;6.244;2023-04-06T07:29:25;12.27;;;8.15;;
51732;SDS011;39139;53.144;6.244;2023-04-06T07:31:52;13.52;;;9.15;;
51732;SDS011;39139;53.144;6.244;2023-04-06T07:34:18;15.70;;;9.45;;
51732;SDS011;39139;53.144;6.244;2023-04-06T07:36:43;11.82;;;8.32;;
51732;SDS011;39139;53.144;6.244;2023-04-06T07:39:09;10.73;;;8.50;;
51732;SDS011;39139;53.144;6.244;2023-04-06T07:41:35;11.15;;;8.57;;
51732;SDS011;39139;53.144;6.244;2023-04-06T07:44:01;11.90;;;8.43;;
51732;SDS011;39139;53.144;6.244;2023-04-06T07:46:26;12.65;;;9.40;;
51732;SDS011;39139;53.144;6.244;2023-04-06T07:48:52;17.33;;;7.50;;
51732;SDS011;39139;53.144;6.244;2023-04-06T07:51:18;10.98;;;9.00;;
51732;SDS011;39139;53.144;6.244;2023-04-06T07:53:44;12.75;;;8.20;;
51732;SDS011;39139;53.144;6.244;2023-04-06T07:56:09;9.85;;;8.15;;
51732;SDS011;39139;53.144;6.244;2023-04-06T07:58:35;13.70;;;8.30;;
51732;SDS011;39139;53.144;6.244;2023-04-06T08:01:01;14.02;;;7.78;;
51732;SDS011;39139;53.144;6.244;2023-04-06T08:03:27;8.82;;;6.32;;
51732;SDS011;39139;53.144;6.244;2023-04-06T08:05:52;12.57;;;8.18;;
51732;SDS011;39139;53.144;6.244;2023-04-06T08:08:18;8.60;;;7.70;;
51732;SDS011;39139;53.144;6.244;2023-04-06T08:10:44;9.77;;;8.70;;
51732;SDS011;39139;53.144;6.244;2023-04-06T08:13:10;10.98;;;8.05;;
51732;SDS011;39139;53.144;6.244;2023-04-06T08:15:35;11.75;;;8.30;;
51732;SDS011;39139;53.144;6.244;2023-04-06T08:18:01;9.75;;;8.20;;
51732;SDS011;39139;53.144;6.244;2023-04-06T08:20:26;10.65;;;8.02;;
51732;SDS011;39139;53.144;6.244;2023-04-06T08:22:52;10.10;;;8.70;;
51732;SDS011;39139;53.144;6.244;2023-04-06T08:25:18;9.35;;;7.15;;
51732;SDS011;39139;53.144;6.244;2023-04-06T08:27:43;11.23;;;7.65;;
51732;SDS011;39139;53.144;6.244;2023-04-06T08:30:09;8.95;;;6.93;;
51732;SDS011;39139;53.144;6.244;2023-04-06T08:32:39;9.65;;;7.70;;
51732;SDS011;39139;53.144;6.244;2023-04-06T08:35:06;12.70;;;8.63;;
51732;SDS011;39139;53.144;6.244;2023-04-06T08:37:32;14.20;;;8.70;;
51732;SDS011;39139;53.144;6.244;2023-04-06T08:39:58;14.32;;;7.38;;
51732;SDS011;39139;53.144;6.244;2023-04-06T08:42:25;11.35;;;7.70;;
51732;SDS011;39139;53.144;6.244;2023-04-06T08:44:52;11.95;;;8.25;;
51732;SDS011;39139;53.144;6.244;2023-04-06T08:47:19;11.88;;;8.85;;
51732;SDS011;39139;53.144;6.244;2023-04-06T08:49:45;15.30;;;8.00;;
51732;SDS011;39139;53.144;6.244;2023-04-06T08:52:11;11.90;;;8.25;;
51732;SDS011;39139;53.144;6.244;2023-04-06T08:54:37;10.63;;;7.45;;
51732;SDS011;39139;53.144;6.244;2023-04-06T08:57:04;11.98;;;8.65;;
51732;SDS011;39139;53.144;6.244;2023-04-06T08:59:31;13.43;;;8.98;;
51732;SDS011;39139;53.144;6.244;2023-04-06T09:01:57;11.23;;;8.27;;
51732;SDS011;39139;53.144;6.244;2023-04-06T09:04:24;14.68;;;9.80;;
51732;SDS011;39139;53.144;6.244;2023-04-06T09:06:51;13.70;;;9.32;;
51732;SDS011;39139;53.144;6.244;2023-04-06T09:09:17;10.75;;;9.18;;
51732;SDS011;39139;53.144;6.244;2023-04-06T09:11:47;15.27;;;10.15;;
51732;SDS011;39139;53.144;6.244;2023-04-06T09:14:13;17.10;;;10.07;;
51732;SDS011;39139;53.144;6.244;2023-04-06T09:16:41;14.55;;;9.68;;
51732;SDS011;39139;53.144;6.244;2023-04-06T09:19:08;15.75;;;8.40;;
51732;SDS011;39139;53.144;6.244;2023-04-06T09:21:34;13.27;;;9.15;;
51732;SDS011;39139;53.144;6.244;2023-04-06T09:24:02;15.18;;;10.63;;
51732;SDS011;39139;53.144;6.244;2023-04-06T09:26:28;14.70;;;9.35;;
51732;SDS011;39139;53.144;6.244;2023-04-06T09:28:56;13.68;;;10.98;;
51732;SDS011;39139;53.144;6.244;2023-04-06T09:31:25;15.85;;;11.10;;
51732;SDS011;39139;53.144;6.244;2023-04-06T09:33:58;16.52;;;10.88;;
51732;SDS011;39139;53.144;6.244;2023-04-06T09:36:32;17.15;;;11.52;;
51732;SDS011;39139;53.144;6.244;2023-04-06T09:39:03;20.65;;;11.88;;
51732;SDS011;39139;53.144;6.244;2023-04-06T09:41:30;18.67;;;13.65;;
51732;SDS011;39139;53.144;6.244;2023-04-06T09:46:43;19.02;;;12.48;;
51732;SDS011;39139;53.144;6.244;2023-04-06T09:49:10;20.77;;;13.07;;
51732;SDS011;39139;53.144;6.244;2023-04-06T09:51:47;18.40;;;12.32;;
51732;SDS011;39139;53.144;6.244;2023-04-06T09:54:21;19.45;;;12.30;;
51732;SDS011;39139;53.144;6.244;2023-04-06T10:05:29;19.33;;;13.30;;
51732;SDS011;39139;53.144;6.244;2023-04-06T10:08:06;21.63;;;15.48;;
51732;SDS011;39139;53.144;6.244;2023-04-06T10:10:35;18.70;;;13.95;;
51732;SDS011;39139;53.144;6.244;2023-04-06T10:13:01;18.70;;;13.35;;
51732;SDS011;39139;53.144;6.244;2023-04-06T10:15:28;21.67;;;13.05;;
51732;SDS011;39139;53.144;6.244;2023-04-06T10:17:55;21.52;;;13.77;;
51732;SDS011;39139;53.144;6.244;2023-04-06T10:20:33;22.65;;;15.13;;
51732;SDS011;39139;53.144;6.244;2023-04-06T10:23:05;22.40;;;14.20;;
51732;SDS011;39139;53.144;6.244;2023-04-06T10:25:52;17.80;;;13.55;;
51732;SDS011;39139;53.144;6.244;2023-04-06T10:28:19;23.77;;;15.50;;
51732;SDS011;39139;53.144;6.244;2023-04-06T10:30:45;21.65;;;14.43;;
51732;SDS011;39139;53.144;6.244;2023-04-06T10:33:15;18.80;;;13.95;;
51732;SDS011;39139;53.144;6.244;2023-04-06T10:35:42;20.30;;;15.60;;
51732;SDS011;39139;53.144;6.244;2023-04-06T10:38:08;21.38;;;15.18;;
51732;SDS011;39139;53.144;6.244;2023-04-06T10:40:38;23.75;;;15.60;;
51732;SDS011;39139;53.144;6.244;2023-04-06T10:43:11;25.58;;;18.02;;
51732;SDS011;39139;53.144;6.244;2023-04-06T10:45:38;27.60;;;18.10;;
51732;SDS011;39139;53.144;6.244;2023-04-06T10:48:14;21.88;;;14.65;;
51732;SDS011;39139;53.144;6.244;2023-04-06T10:50:44;26.67;;;17.92;;
51732;SDS011;39139;53.144;6.244;2023-04-06T10:53:11;27.88;;;17.15;;
51732;SDS011;39139;53.144;6.244;2023-04-06T10:55:45;27.35;;;18.17;;
51732;SDS011;39139;53.144;6.244;2023-04-06T10:58:12;27.90;;;19.40;;
51732;SDS011;39139;53.144;6.244;2023-04-06T11:00:43;28.60;;;18.92;;
51732;SDS011;39139;53.144;6.244;2023-04-06T11:03:10;25.50;;;17.77;;
51732;SDS011;39139;53.144;6.244;2023-04-06T11:05:36;26.80;;;19.08;;
51732;SDS011;39139;53.144;6.244;2023-04-06T11:08:01;26.40;;;17.45;;
51732;SDS011;39139;53.144;6.244;2023-04-06T11:10:27;26.23;;;19.00;;
51732;SDS011;39139;53.144;6.244;2023-04-06T11:12:54;31.70;;;20.83;;
51732;SDS011;39139;53.144;6.244;2023-04-06T11:15:21;30.70;;;20.45;;
51732;SDS011;39139;53.144;6.244;2023-04-06T11:17:47;28.08;;;18.08;;
51732;SDS011;39139;53.144;6.244;2023-04-06T11:20:14;25.95;;;18.48;;
51732;SDS011;39139;53.144;6.244;2023-04-06T11:22:49;28.05;;;18.77;;
51732;SDS011;39139;53.144;6.244;2023-04-06T11:25:16;29.85;;;18.83;;
51732;SDS011;39139;53.144;6.244;2023-04-06T11:27:42;25.20;;;20.05;;
51732;SDS011;39139;53.144;6.244;2023-04-06T11:30:08;28.98;;;18.55;;
51732;SDS011;39139;53.144;6.244;2023-04-06T11:32:41;26.98;;;15.77;;
51732;SDS011;39139;53.144;6.244;2023-04-06T11:35:21;28.20;;;17.45;;
51732;SDS011;39139;53.144;6.244;2023-04-06T11:40:22;23.67;;;15.02;;
51732;SDS011;39139;53.144;6.244;2023-04-06T11:42:53;26.77;;;18.05;;
51732;SDS011;39139;53.144;6.244;2023-04-06T11:45:20;25.20;;;18.13;;
51732;SDS011;39139;53.144;6.244;2023-04-06T11:47:54;22.73;;;15.73;;
51732;SDS011;39139;53.144;6.244;2023-04-06T11:50:24;29.20;;;19.75;;
51732;SDS011;39139;53.144;6.244;2023-04-06T11:53:00;26.95;;;17.50;;
51732;SDS011;39139;53.144;6.244;2023-04-06T11:55:27;23.20;;;16.90;;
51732;SDS011;39139;53.144;6.244;2023-04-06T11:57:53;24.92;;;19.30;;
51732;SDS011;39139;53.144;6.244;2023-04-06T12:00:19;27.13;;;17.45;;
51732;SDS011;39139;53.144;6.244;2023-04-06T12:02:46;26.02;;;17.27;;
51732;SDS011;39139;53.144;6.244;2023-04-06T12:05:13;29.67;;;18.23;;
51732;SDS011;39139;53.144;6.244;2023-04-06T12:07:39;26.67;;;18.33;;
51732;SDS011;39139;53.144;6.244;2023-04-06T12:10:05;30.65;;;20.40;;
51732;SDS011;39139;53.144;6.244;2023-04-06T12:12:31;24.48;;;18.13;;
51732;SDS011;39139;53.144;6.244;2023-04-06T12:14:57;23.90;;;16.42;;
51732;SDS011;39139;53.144;6.244;2023-04-06T12:17:23;26.23;;;17.85;;
51732;SDS011;39139;53.144;6.244;2023-04-06T12:19:49;28.45;;;19.50;;
51732;SDS011;39139;53.144;6.244;2023-04-06T12:22:15;33.80;;;17.33;;
51732;SDS011;39139;53.144;6.244;2023-04-06T12:24:43;26.48;;;19.70;;
51732;SDS011;39139;53.144;6.244;2023-04-06T12:27:08;31.83;;;19.63;;
51732;SDS011;39139;53.144;6.244;2023-04-06T12:29:36;28.40;;;17.85;;
51732;SDS011;39139;53.144;6.244;2023-04-06T12:32:05;29.33;;;17.33;;
51732;SDS011;39139;53.144;6.244;2023-04-06T12:34:31;28.27;;;18.13;;
51732;SDS011;39139;53.144;6.244;2023-04-06T12:36:56;25.17;;;19.35;;
51732;SDS011;39139;53.144;6.244;2023-04-06T12:39:22;28.88;;;20.40;;
51732;SDS011;39139;53.144;6.244;2023-04-06T12:41:48;28.67;;;18.55;;
51732;SDS011;39139;53.144;6.244;2023-04-06T12:44:14;27.77;;;20.58;;
51732;SDS011;39139;53.144;6.244;2023-04-06T12:46:40;26.23;;;19.40;;
51732;SDS011;39139;53.144;6.244;2023-04-06T12:49:08;29.27;;;20.25;;
51732;SDS011;39139;53.144;6.244;2023-04-06T12:51:33;24.98;;;18.92;;
51732;SDS011;39139;53.144;6.244;2023-04-06T12:53:59;26.50;;;16.55;;
51732;SDS011;39139;53.144;6.244;2023-04-06T12:56:24;20.17;;;16.73;;
51732;SDS011;39139;53.144;6.244;2023-04-06T12:58:50;16.83;;;11.93;;
51732;SDS011;39139;53.144;6.244;2023-04-06T13:01:17;19.13;;;14.55;;
51732;SDS011;39139;53.144;6.244;2023-04-06T13:03:42;17.58;;;12.25;;
51732;SDS011;39139;53.144;6.244;2023-04-06T13:06:08;21.10;;;15.77;;
51732;SDS011;39139;53.144;6.244;2023-04-06T13:08:35;20.00;;;14.95;;
51732;SDS011;39139;53.144;6.244;2023-04-06T13:11:02;18.70;;;11.80;;
51732;SDS011;39139;53.144;6.244;2023-04-06T13:13:28;15.38;;;12.45;;
51732;SDS011;39139;53.144;6.244;2023-04-06T13:15:55;17.40;;;12.98;;
51732;SDS011;39139;53.144;6.244;2023-04-06T13:18:28;16.55;;;13.50;;
51732;SDS011;39139;53.144;6.244;2023-04-06T13:20:55;18.02;;;13.63;;
51732;SDS011;39139;53.144;6.244;2023-04-06T13:23:21;16.42;;;12.18;;
51732;SDS011;39139;53.144;6.244;2023-04-06T13:25:47;19.02;;;12.55;;
51732;SDS011;39139;53.144;6.244;2023-04-06T13:28:21;14.00;;;10.80;;
51732;SDS011;39139;53.144;6.244;2023-04-06T13:30:47;12.45;;;10.07;;
51732;SDS011;39139;53.144;6.244;2023-04-06T13:33:14;11.00;;;8.73;;
51732;SDS011;39139;53.144;6.244;2023-04-06T13:35:39;11.55;;;8.02;;
51732;SDS011;39139;53.144;6.244;2023-04-06T13:38:05;13.38;;;10.13;;
51732;SDS011;39139;53.144;6.244;2023-04-06T13:40:30;13.23;;;9.27;;
51732;SDS011;39139;53.144;6.244;2023-04-06T13:42:56;11.20;;;8.25;;
51732;SDS011;39139;53.144;6.244;2023-04-06T13:45:21;17.45;;;9.40;;
51732;SDS011;39139;53.144;6.244;2023-04-06T13:47:47;14.10;;;9.35;;
51732;SDS011;39139;53.144;6.244;2023-04-06T13:50:15;11.23;;;8.68;;
51732;SDS011;39139;53.144;6.244;2023-04-06T13:52:41;13.13;;;8.48;;
51732;SDS011;39139;53.144;6.244;2023-04-06T13:55:07;15.40;;;10.55;;
51732;SDS011;39139;53.144;6.244;2023-04-06T13:57:32;12.93;;;10.32;;
51732;SDS011;39139;53.144;6.244;2023-04-06T13:59:58;12.32;;;9.82;;
51732;SDS011;39139;53.144;6.244;2023-04-06T14:02:24;12.10;;;9.43;;
51732;SDS011;39139;53.144;6.244;2023-04-06T14:04:52;10.88;;;8.88;;
51732;SDS011;39139;53.144;6.244;2023-04-06T14:07:19;10.48;;;9.27;;
51732;SDS011;39139;53.144;6.244;2023-04-06T14:09:45;12.95;;;10.13;;
51732;SDS011;39139;53.144;6.244;2023-04-06T14:12:11;10.18;;;7.45;;
51732;SDS011;39139;53.144;6.244;2023-04-06T14:14:37;9.50;;;7.93;;
51732;SDS011;39139;53.144;6.244;2023-04-06T14:17:02;9.95;;;6.78;;
51732;SDS011;39139;53.144;6.244;2023-04-06T14:19:28;9.65;;;7.55;;
51732;SDS011;39139;53.144;6.244;2023-04-06T14:21:54;9.50;;;6.55;;
51732;SDS011;39139;53.144;6.244;2023-04-06T14:24:21;9.48;;;6.70;;
51732;SDS011;39139;53.144;6.244;2023-04-06T14:26:47;10.95;;;8.43;;
51732;SDS011;39139;53.144;6.244;2023-04-06T14:29:13;10.82;;;8.93;;
51732;SDS011;39139;53.144;6.244;2023-04-06T14:31:40;9.07;;;7.35;;
51732;SDS011;39139;53.144;6.244;2023-04-06T14:34:06;12.23;;;8.63;;
51732;SDS011;39139;53.144;6.244;2023-04-06T14:36:32;13.50;;;10.60;;
51732;SDS011;39139;53.144;6.244;2023-04-06T14:39:06;12.77;;;10.05;;
51732;SDS011;39139;53.144;6.244;2023-04-06T14:41:32;14.82;;;11.48;;
51732;SDS011;39139;53.144;6.244;2023-04-06T14:43:59;17.30;;;10.75;;
51732;SDS011;39139;53.144;6.244;2023-04-06T14:46:25;14.85;;;12.55;;